sensor_id;sensor_type;location;lat;lon;timestamp;P1;durP1;ratioP1;P2;durP2;ratioP2
40154;SDS011;25875;48.202;16.334;2023-03-07T00:01:02;17.55;;;13.18;;
40154;SDS011;25875;48.202;16.334;2023-03-07T00:03:30;15.60;;;11.93;;
40154;SDS011;25875;48.202;16.334;2023-03-07T00:06:00;17.63;;;11.98;;
40154;SDS011;25875;48.202;16.334;2023-03-07T00:08:28;16.17;;;11.32;;
40154;SDS011;25875;48.202;16.334;2023-03-07T00:10:59;19.52;;;12.48;;
40154;SDS011;25875;48.202;16.334;2023-03-07T00:13:28;17.00;;;12.57;;
40154;SDS011;25875;48.202;16.334;2023-03-07T00:16:00;18.15;;;12.27;;
40154;SDS011;25875;48.202;16.334;2023-03-07T00:18:28;16.90;;;12.20;;
40154;SDS011;25875;48.202;16.334;2023-03-07T00:20:55;17.50;;;11.88;;
40154;SDS011;25875;48.202;16.334;2023-03-07T00:23:23;18.40;;;11.70;;
40154;SDS011;25875;48.202;16.334;2023-03-07T00:25:55;18.98;;;11.45;;
40154;SDS011;25875;48.202;16.334;2023-03-07T00:28:23;19.45;;;13.25;;
40154;SDS011;25875;48.202;16.334;2023-03-07T00:30:51;16.48;;;12.85;;
40154;SDS011;25875;48.202;16.334;2023-03-07T00:33:18;18.08;;;12.77;;
40154;SDS011;25875;48.202;16.334;2023-03-07T00:35:52;17.83;;;13.20;;
40154;SDS011;25875;48.202;16.334;2023-03-07T00:38:20;16.00;;;11.88;;
40154;SDS011;25875;48.202;16.334;2023-03-07T00:40:54;21.27;;;12.55;;
40154;SDS011;25875;48.202;16.334;2023-03-07T00:45:48;20.15;;;12.50;;
40154;SDS011;25875;48.202;16.334;2023-03-07T00:48:16;19.70;;;13.88;;
40154;SDS011;25875;48.202;16.334;2023-03-07T00:50:43;17.48;;;12.38;;
40154;SDS011;25875;48.202;16.334;2023-03-07T00:53:10;21.15;;;13.05;;
40154;SDS011;25875;48.202;16.334;2023-03-07T00:55:38;18.73;;;12.98;;
40154;SDS011;25875;48.202;16.334;2023-03-07T00:58:04;20.65;;;13.52;;
40154;SDS011;25875;48.202;16.334;2023-03-07T01:00:31;21.52;;;14.52;;
40154;SDS011;25875;48.202;16.334;2023-03-07T01:02:59;18.25;;;13.27;;
40154;SDS011;25875;48.202;16.334;2023-03-07T01:05:28;18.88;;;13.27;;
40154;SDS011;25875;48.202;16.334;2023-03-07T01:07:55;17.02;;;11.93;;
40154;SDS011;25875;48.202;16.334;2023-03-07T01:10:22;19.60;;;13.63;;
40154;SDS011;25875;48.202;16.334;2023-03-07T01:12:51;19.35;;;12.98;;
40154;SDS011;25875;48.202;16.334;2023-03-07T01:15:17;19.40;;;13.15;;
40154;SDS011;25875;48.202;16.334;2023-03-07T01:17:44;22.17;;;14.00;;
40154;SDS011;25875;48.202;16.334;2023-03-07T01:20:12;20.75;;;14.30;;
40154;SDS011;25875;48.202;16.334;2023-03-07T01:22:39;18.15;;;13.32;;
40154;SDS011;25875;48.202;16.334;2023-03-07T01:25:06;19.65;;;14.15;;
40154;SDS011;25875;48.202;16.334;2023-03-07T01:27:33;20.83;;;13.80;;
40154;SDS011;25875;48.202;16.334;2023-03-07T01:30:00;20.80;;;14.13;;
40154;SDS011;25875;48.202;16.334;2023-03-07T01:32:27;18.17;;;13.38;;
40154;SDS011;25875;48.202;16.334;2023-03-07T01:34:54;18.80;;;13.38;;
40154;SDS011;25875;48.202;16.334;2023-03-07T01:37:22;21.83;;;13.75;;
40154;SDS011;25875;48.202;16.334;2023-03-07T01:39:50;17.98;;;12.32;;
40154;SDS011;25875;48.202;16.334;2023-03-07T01:42:17;18.25;;;12.43;;
40154;SDS011;25875;48.202;16.334;2023-03-07T01:44:57;19.63;;;13.95;;
40154;SDS011;25875;48.202;16.334;2023-03-07T01:47:28;21.67;;;14.02;;
40154;SDS011;25875;48.202;16.334;2023-03-07T01:49:55;20.85;;;12.77;;
40154;SDS011;25875;48.202;16.334;2023-03-07T01:52:27;19.38;;;13.30;;
40154;SDS011;25875;48.202;16.334;2023-03-07T01:54:59;20.48;;;13.80;;
40154;SDS011;25875;48.202;16.334;2023-03-07T01:57:31;17.67;;;13.10;;
40154;SDS011;25875;48.202;16.334;2023-03-07T02:00:02;19.48;;;12.95;;
40154;SDS011;25875;48.202;16.334;2023-03-07T02:02:35;20.10;;;13.18;;
40154;SDS011;25875;48.202;16.334;2023-03-07T02:05:05;18.75;;;13.15;;
40154;SDS011;25875;48.202;16.334;2023-03-07T02:07:39;17.77;;;12.40;;
40154;SDS011;25875;48.202;16.334;2023-03-07T02:10:09;18.58;;;13.90;;
40154;SDS011;25875;48.202;16.334;2023-03-07T02:12:38;20.23;;;12.90;;
40154;SDS011;25875;48.202;16.334;2023-03-07T02:15:07;20.35;;;13.30;;
40154;SDS011;25875;48.202;16.334;2023-03-07T02:17:35;21.00;;;13.27;;
40154;SDS011;25875;48.202;16.334;2023-03-07T02:20:07;20.27;;;12.93;;
40154;SDS011;25875;48.202;16.334;2023-03-07T02:22:43;19.30;;;13.10;;
40154;SDS011;25875;48.202;16.334;2023-03-07T02:25:11;19.25;;;14.02;;
40154;SDS011;25875;48.202;16.334;2023-03-07T02:27:45;17.65;;;12.82;;
40154;SDS011;25875;48.202;16.334;2023-03-07T02:30:14;19.38;;;13.20;;
40154;SDS011;25875;48.202;16.334;2023-03-07T02:32:41;19.95;;;12.68;;
40154;SDS011;25875;48.202;16.334;2023-03-07T02:35:10;18.02;;;13.35;;
40154;SDS011;25875;48.202;16.334;2023-03-07T02:37:39;18.08;;;13.35;;
40154;SDS011;25875;48.202;16.334;2023-03-07T02:40:09;17.27;;;11.90;;
40154;SDS011;25875;48.202;16.334;2023-03-07T02:42:38;20.20;;;13.73;;
40154;SDS011;25875;48.202;16.334;2023-03-07T02:45:09;18.98;;;13.68;;
40154;SDS011;25875;48.202;16.334;2023-03-07T02:47:38;20.58;;;12.82;;
40154;SDS011;25875;48.202;16.334;2023-03-07T02:50:05;20.50;;;14.32;;
40154;SDS011;25875;48.202;16.334;2023-03-07T02:52:32;18.98;;;13.65;;
40154;SDS011;25875;48.202;16.334;2023-03-07T02:54:59;19.65;;;13.55;;
40154;SDS011;25875;48.202;16.334;2023-03-07T02:57:26;20.63;;;13.93;;
40154;SDS011;25875;48.202;16.334;2023-03-07T02:59:52;23.13;;;13.70;;
40154;SDS011;25875;48.202;16.334;2023-03-07T03:02:20;20.17;;;13.35;;
40154;SDS011;25875;48.202;16.334;2023-03-07T03:04:47;18.90;;;13.55;;
40154;SDS011;25875;48.202;16.334;2023-03-07T03:07:14;20.55;;;14.05;;
40154;SDS011;25875;48.202;16.334;2023-03-07T03:09:41;16.40;;;12.60;;
40154;SDS011;25875;48.202;16.334;2023-03-07T03:12:07;18.25;;;12.93;;
40154;SDS011;25875;48.202;16.334;2023-03-07T03:14:34;17.90;;;12.25;;
40154;SDS011;25875;48.202;16.334;2023-03-07T03:17:01;17.88;;;12.73;;
40154;SDS011;25875;48.202;16.334;2023-03-07T03:19:30;20.00;;;12.98;;
40154;SDS011;25875;48.202;16.334;2023-03-07T03:21:56;18.95;;;12.02;;
40154;SDS011;25875;48.202;16.334;2023-03-07T03:24:23;24.60;;;13.57;;
40154;SDS011;25875;48.202;16.334;2023-03-07T03:26:50;19.60;;;14.18;;
40154;SDS011;25875;48.202;16.334;2023-03-07T03:29:20;17.73;;;13.55;;
40154;SDS011;25875;48.202;16.334;2023-03-07T03:31:47;20.20;;;13.45;;
40154;SDS011;25875;48.202;16.334;2023-03-07T03:34:14;20.48;;;13.73;;
40154;SDS011;25875;48.202;16.334;2023-03-07T03:36:43;17.40;;;11.80;;
40154;SDS011;25875;48.202;16.334;2023-03-07T03:39:09;19.67;;;13.25;;
40154;SDS011;25875;48.202;16.334;2023-03-07T03:41:36;20.40;;;13.05;;
40154;SDS011;25875;48.202;16.334;2023-03-07T03:44:03;21.63;;;13.93;;
40154;SDS011;25875;48.202;16.334;2023-03-07T03:46:30;15.77;;;11.90;;
40154;SDS011;25875;48.202;16.334;2023-03-07T03:48:57;20.23;;;13.52;;
40154;SDS011;25875;48.202;16.334;2023-03-07T03:51:23;20.90;;;13.73;;
40154;SDS011;25875;48.202;16.334;2023-03-07T03:53:52;17.85;;;12.93;;
40154;SDS011;25875;48.202;16.334;2023-03-07T03:56:19;17.00;;;12.70;;
40154;SDS011;25875;48.202;16.334;2023-03-07T03:58:47;19.98;;;13.50;;
40154;SDS011;25875;48.202;16.334;2023-03-07T04:01:18;20.35;;;12.70;;
40154;SDS011;25875;48.202;16.334;2023-03-07T04:03:47;21.00;;;13.18;;
40154;SDS011;25875;48.202;16.334;2023-03-07T04:06:16;19.27;;;12.65;;
40154;SDS011;25875;48.202;16.334;2023-03-07T04:08:44;19.75;;;12.77;;
40154;SDS011;25875;48.202;16.334;2023-03-07T04:11:13;19.95;;;13.25;;
40154;SDS011;25875;48.202;16.334;2023-03-07T04:13:40;19.35;;;13.43;;
40154;SDS011;25875;48.202;16.334;2023-03-07T04:16:07;19.13;;;13.57;;
40154;SDS011;25875;48.202;16.334;2023-03-07T04:18:34;23.15;;;13.70;;
40154;SDS011;25875;48.202;16.334;2023-03-07T04:21:01;22.38;;;13.23;;
40154;SDS011;25875;48.202;16.334;2023-03-07T04:23:29;18.85;;;12.93;;
40154;SDS011;25875;48.202;16.334;2023-03-07T04:25:57;18.77;;;12.15;;
40154;SDS011;25875;48.202;16.334;2023-03-07T04:28:27;18.27;;;12.55;;
40154;SDS011;25875;48.202;16.334;2023-03-07T04:31:06;16.63;;;11.45;;
40154;SDS011;25875;48.202;16.334;2023-03-07T04:33:33;20.23;;;12.55;;
40154;SDS011;25875;48.202;16.334;2023-03-07T04:36:00;16.48;;;12.30;;
40154;SDS011;25875;48.202;16.334;2023-03-07T04:38:26;17.15;;;12.02;;
40154;SDS011;25875;48.202;16.334;2023-03-07T04:40:53;19.33;;;12.75;;
40154;SDS011;25875;48.202;16.334;2023-03-07T04:43:20;18.02;;;12.68;;
40154;SDS011;25875;48.202;16.334;2023-03-07T04:45:48;17.92;;;11.85;;
40154;SDS011;25875;48.202;16.334;2023-03-07T04:48:17;17.77;;;12.90;;
40154;SDS011;25875;48.202;16.334;2023-03-07T04:50:44;19.67;;;12.82;;
40154;SDS011;25875;48.202;16.334;2023-03-07T04:53:13;17.67;;;11.82;;
40154;SDS011;25875;48.202;16.334;2023-03-07T04:55:40;18.08;;;12.10;;
40154;SDS011;25875;48.202;16.334;2023-03-07T04:58:07;14.95;;;11.25;;
40154;SDS011;25875;48.202;16.334;2023-03-07T05:00:38;18.08;;;12.02;;
40154;SDS011;25875;48.202;16.334;2023-03-07T05:03:07;15.38;;;11.10;;
40154;SDS011;25875;48.202;16.334;2023-03-07T05:05:34;17.58;;;11.95;;
40154;SDS011;25875;48.202;16.334;2023-03-07T05:08:01;14.75;;;11.07;;
40154;SDS011;25875;48.202;16.334;2023-03-07T05:10:29;17.58;;;12.55;;
40154;SDS011;25875;48.202;16.334;2023-03-07T05:12:56;17.48;;;12.23;;
40154;SDS011;25875;48.202;16.334;2023-03-07T05:15:23;16.65;;;12.07;;
40154;SDS011;25875;48.202;16.334;2023-03-07T05:17:49;17.35;;;12.65;;
40154;SDS011;25875;48.202;16.334;2023-03-07T05:20:18;18.42;;;10.35;;
40154;SDS011;25875;48.202;16.334;2023-03-07T05:22:46;15.52;;;11.45;;
40154;SDS011;25875;48.202;16.334;2023-03-07T05:25:12;17.17;;;11.07;;
40154;SDS011;25875;48.202;16.334;2023-03-07T05:27:39;19.85;;;12.65;;
40154;SDS011;25875;48.202;16.334;2023-03-07T05:30:08;14.63;;;11.60;;
40154;SDS011;25875;48.202;16.334;2023-03-07T05:32:36;14.15;;;10.40;;
40154;SDS011;25875;48.202;16.334;2023-03-07T05:35:03;17.33;;;10.95;;
40154;SDS011;25875;48.202;16.334;2023-03-07T05:37:32;16.30;;;11.93;;
40154;SDS011;25875;48.202;16.334;2023-03-07T05:39:58;16.60;;;12.27;;
40154;SDS011;25875;48.202;16.334;2023-03-07T05:42:25;16.90;;;11.27;;
40154;SDS011;25875;48.202;16.334;2023-03-07T05:44:52;14.60;;;10.80;;
40154;SDS011;25875;48.202;16.334;2023-03-07T05:47:19;19.10;;;12.70;;
40154;SDS011;25875;48.202;16.334;2023-03-07T05:49:45;18.58;;;12.23;;
40154;SDS011;25875;48.202;16.334;2023-03-07T05:52:12;16.33;;;11.18;;
40154;SDS011;25875;48.202;16.334;2023-03-07T05:54:40;17.35;;;11.63;;
40154;SDS011;25875;48.202;16.334;2023-03-07T05:57:07;16.05;;;11.63;;
40154;SDS011;25875;48.202;16.334;2023-03-07T05:59:33;19.63;;;12.73;;
40154;SDS011;25875;48.202;16.334;2023-03-07T06:02:00;18.50;;;11.55;;
40154;SDS011;25875;48.202;16.334;2023-03-07T06:04:27;17.70;;;12.00;;
40154;SDS011;25875;48.202;16.334;2023-03-07T06:06:54;14.32;;;10.85;;
40154;SDS011;25875;48.202;16.334;2023-03-07T06:09:21;15.27;;;10.77;;
40154;SDS011;25875;48.202;16.334;2023-03-07T06:11:51;18.95;;;11.45;;
40154;SDS011;25875;48.202;16.334;2023-03-07T06:14:18;15.70;;;10.77;;
40154;SDS011;25875;48.202;16.334;2023-03-07T06:16:45;15.32;;;10.77;;
40154;SDS011;25875;48.202;16.334;2023-03-07T06:19:11;15.98;;;11.73;;
40154;SDS011;25875;48.202;16.334;2023-03-07T06:21:38;15.25;;;11.13;;
40154;SDS011;25875;48.202;16.334;2023-03-07T06:24:05;17.45;;;11.13;;
40154;SDS011;25875;48.202;16.334;2023-03-07T06:26:32;13.27;;;10.93;;
40154;SDS011;25875;48.202;16.334;2023-03-07T06:29:01;19.40;;;11.55;;
40154;SDS011;25875;48.202;16.334;2023-03-07T06:31:27;19.77;;;12.55;;
40154;SDS011;25875;48.202;16.334;2023-03-07T06:33:54;17.83;;;11.63;;
40154;SDS011;25875;48.202;16.334;2023-03-07T06:36:21;19.20;;;11.65;;
40154;SDS011;25875;48.202;16.334;2023-03-07T06:38:48;15.07;;;11.20;;
40154;SDS011;25875;48.202;16.334;2023-03-07T06:41:14;16.50;;;11.38;;
40154;SDS011;25875;48.202;16.334;2023-03-07T06:43:41;15.65;;;11.15;;
40154;SDS011;25875;48.202;16.334;2023-03-07T06:46:09;15.98;;;10.57;;
40154;SDS011;25875;48.202;16.334;2023-03-07T06:48:36;16.48;;;11.27;;
40154;SDS011;25875;48.202;16.334;2023-03-07T06:51:05;20.60;;;12.40;;
40154;SDS011;25875;48.202;16.334;2023-03-07T06:53:32;15.02;;;11.38;;
40154;SDS011;25875;48.202;16.334;2023-03-07T06:55:59;17.15;;;11.85;;
40154;SDS011;25875;48.202;16.334;2023-03-07T06:58:26;18.55;;;11.85;;
40154;SDS011;25875;48.202;16.334;2023-03-07T07:00:53;19.25;;;12.73;;
40154;SDS011;25875;48.202;16.334;2023-03-07T07:03:21;24.73;;;13.77;;
40154;SDS011;25875;48.202;16.334;2023-03-07T07:05:48;16.00;;;10.50;;
40154;SDS011;25875;48.202;16.334;2023-03-07T07:08:15;15.80;;;11.70;;
40154;SDS011;25875;48.202;16.334;2023-03-07T07:10:42;16.38;;;11.48;;
40154;SDS011;25875;48.202;16.334;2023-03-07T07:13:08;18.23;;;12.32;;
40154;SDS011;25875;48.202;16.334;2023-03-07T07:15:37;21.27;;;12.68;;
40154;SDS011;25875;48.202;16.334;2023-03-07T07:18:04;17.45;;;10.93;;
40154;SDS011;25875;48.202;16.334;2023-03-07T07:20:32;18.63;;;12.65;;
40154;SDS011;25875;48.202;16.334;2023-03-07T07:22:59;15.60;;;11.15;;
40154;SDS011;25875;48.202;16.334;2023-03-07T07:25:26;16.23;;;10.68;;
40154;SDS011;25875;48.202;16.334;2023-03-07T07:27:52;15.25;;;10.95;;
40154;SDS011;25875;48.202;16.334;2023-03-07T07:30:19;16.35;;;11.90;;
40154;SDS011;25875;48.202;16.334;2023-03-07T07:32:46;17.10;;;10.27;;
40154;SDS011;25875;48.202;16.334;2023-03-07T07:35:13;16.60;;;11.02;;
40154;SDS011;25875;48.202;16.334;2023-03-07T07:37:41;14.15;;;10.00;;
40154;SDS011;25875;48.202;16.334;2023-03-07T07:40:08;17.13;;;10.60;;
40154;SDS011;25875;48.202;16.334;2023-03-07T07:42:36;15.55;;;11.55;;
40154;SDS011;25875;48.202;16.334;2023-03-07T07:45:03;17.05;;;12.45;;
40154;SDS011;25875;48.202;16.334;2023-03-07T07:47:30;21.00;;;12.50;;
40154;SDS011;25875;48.202;16.334;2023-03-07T07:49:57;15.82;;;11.80;;
40154;SDS011;25875;48.202;16.334;2023-03-07T07:52:24;18.13;;;11.68;;
40154;SDS011;25875;48.202;16.334;2023-03-07T07:54:52;16.90;;;12.18;;
40154;SDS011;25875;48.202;16.334;2023-03-07T07:57:18;16.58;;;11.05;;
40154;SDS011;25875;48.202;16.334;2023-03-07T07:59:45;17.15;;;11.68;;
40154;SDS011;25875;48.202;16.334;2023-03-07T08:02:13;19.58;;;12.05;;
40154;SDS011;25875;48.202;16.334;2023-03-07T08:04:40;18.02;;;11.52;;
40154;SDS011;25875;48.202;16.334;2023-03-07T08:07:07;16.35;;;12.18;;
40154;SDS011;25875;48.202;16.334;2023-03-07T08:09:33;18.98;;;12.55;;
40154;SDS011;25875;48.202;16.334;2023-03-07T08:12:02;19.17;;;12.75;;
40154;SDS011;25875;48.202;16.334;2023-03-07T08:14:29;20.05;;;14.00;;
40154;SDS011;25875;48.202;16.334;2023-03-07T08:16:58;20.88;;;12.93;;
40154;SDS011;25875;48.202;16.334;2023-03-07T08:19:25;19.60;;;13.07;;
40154;SDS011;25875;48.202;16.334;2023-03-07T08:21:52;17.00;;;12.43;;
40154;SDS011;25875;48.202;16.334;2023-03-07T08:24:18;19.98;;;13.43;;
40154;SDS011;25875;48.202;16.334;2023-03-07T08:26:45;17.45;;;12.23;;
40154;SDS011;25875;48.202;16.334;2023-03-07T08:29:13;21.98;;;13.55;;
40154;SDS011;25875;48.202;16.334;2023-03-07T08:31:41;19.23;;;12.73;;
40154;SDS011;25875;48.202;16.334;2023-03-07T08:34:09;17.30;;;11.93;;
40154;SDS011;25875;48.202;16.334;2023-03-07T08:36:35;19.98;;;13.48;;
40154;SDS011;25875;48.202;16.334;2023-03-07T08:39:03;21.85;;;13.98;;
40154;SDS011;25875;48.202;16.334;2023-03-07T08:41:30;17.52;;;11.55;;
40154;SDS011;25875;48.202;16.334;2023-03-07T08:43:57;19.70;;;14.88;;
40154;SDS011;25875;48.202;16.334;2023-03-07T08:46:25;23.30;;;13.80;;
40154;SDS011;25875;48.202;16.334;2023-03-07T08:48:51;16.70;;;12.18;;
40154;SDS011;25875;48.202;16.334;2023-03-07T08:51:18;20.20;;;12.90;;
40154;SDS011;25875;48.202;16.334;2023-03-07T08:53:45;15.05;;;12.40;;
40154;SDS011;25875;48.202;16.334;2023-03-07T08:56:13;17.55;;;11.82;;
40154;SDS011;25875;48.202;16.334;2023-03-07T08:58:42;16.67;;;11.68;;
40154;SDS011;25875;48.202;16.334;2023-03-07T09:01:09;16.02;;;10.98;;
40154;SDS011;25875;48.202;16.334;2023-03-07T09:03:38;16.45;;;13.02;;
40154;SDS011;25875;48.202;16.334;2023-03-07T09:06:05;16.27;;;12.10;;
40154;SDS011;25875;48.202;16.334;2023-03-07T09:08:32;15.90;;;11.95;;
40154;SDS011;25875;48.202;16.334;2023-03-07T09:10:59;14.95;;;11.18;;
40154;SDS011;25875;48.202;16.334;2023-03-07T09:13:27;18.10;;;12.85;;
40154;SDS011;25875;48.202;16.334;2023-03-07T09:15:54;16.05;;;11.27;;
40154;SDS011;25875;48.202;16.334;2023-03-07T09:18:21;16.42;;;11.00;;
40154;SDS011;25875;48.202;16.334;2023-03-07T09:20:49;19.10;;;10.98;;
40154;SDS011;25875;48.202;16.334;2023-03-07T09:23:16;14.82;;;10.27;;
40154;SDS011;25875;48.202;16.334;2023-03-07T09:25:42;14.65;;;10.30;;
40154;SDS011;25875;48.202;16.334;2023-03-07T09:28:09;16.65;;;11.80;;
40154;SDS011;25875;48.202;16.334;2023-03-07T09:30:37;14.98;;;10.43;;
40154;SDS011;25875;48.202;16.334;2023-03-07T09:33:03;18.67;;;13.48;;
40154;SDS011;25875;48.202;16.334;2023-03-07T09:35:30;15.93;;;11.75;;
40154;SDS011;25875;48.202;16.334;2023-03-07T09:37:59;17.33;;;10.80;;
40154;SDS011;25875;48.202;16.334;2023-03-07T09:40:26;14.82;;;10.65;;
40154;SDS011;25875;48.202;16.334;2023-03-07T09:42:55;15.15;;;10.77;;
40154;SDS011;25875;48.202;16.334;2023-03-07T09:48:41;15.80;;;11.90;;
40154;SDS011;25875;48.202;16.334;2023-03-07T09:51:17;13.65;;;10.25;;
40154;SDS011;25875;48.202;16.334;2023-03-07T09:53:48;15.15;;;11.27;;
40154;SDS011;25875;48.202;16.334;2023-03-07T09:56:19;15.77;;;12.20;;
40154;SDS011;25875;48.202;16.334;2023-03-07T09:58:50;12.43;;;10.20;;
40154;SDS011;25875;48.202;16.334;2023-03-07T10:01:24;16.42;;;11.40;;
40154;SDS011;25875;48.202;16.334;2023-03-07T10:03:58;16.02;;;10.05;;
40154;SDS011;25875;48.202;16.334;2023-03-07T10:06:28;9.30;;;7.43;;
40154;SDS011;25875;48.202;16.334;2023-03-07T10:09:01;12.70;;;8.90;;
40154;SDS011;25875;48.202;16.334;2023-03-07T10:11:39;11.52;;;9.73;;
40154;SDS011;25875;48.202;16.334;2023-03-07T10:14:20;10.88;;;8.55;;
40154;SDS011;25875;48.202;16.334;2023-03-07T10:17:02;11.48;;;9.27;;
40154;SDS011;25875;48.202;16.334;2023-03-07T10:19:40;15.10;;;12.05;;
40154;SDS011;25875;48.202;16.334;2023-03-07T10:22:16;9.65;;;7.70;;
40154;SDS011;25875;48.202;16.334;2023-03-07T10:27:43;10.80;;;8.70;;
40154;SDS011;25875;48.202;16.334;2023-03-07T10:30:13;11.95;;;8.43;;
40154;SDS011;25875;48.202;16.334;2023-03-07T10:32:43;11.50;;;8.07;;
40154;SDS011;25875;48.202;16.334;2023-03-07T10:35:15;14.88;;;10.07;;
40154;SDS011;25875;48.202;16.334;2023-03-07T10:37:46;14.32;;;10.48;;
40154;SDS011;25875;48.202;16.334;2023-03-07T10:40:20;13.23;;;9.90;;
40154;SDS011;25875;48.202;16.334;2023-03-07T10:42:52;13.10;;;9.80;;
40154;SDS011;25875;48.202;16.334;2023-03-07T10:45:20;15.43;;;10.55;;
40154;SDS011;25875;48.202;16.334;2023-03-07T10:47:47;11.85;;;9.13;;
40154;SDS011;25875;48.202;16.334;2023-03-07T10:53:07;11.60;;;8.88;;
40154;SDS011;25875;48.202;16.334;2023-03-07T10:55:43;14.35;;;10.77;;
40154;SDS011;25875;48.202;16.334;2023-03-07T10:58:13;14.05;;;11.13;;
40154;SDS011;25875;48.202;16.334;2023-03-07T11:00:43;13.30;;;10.63;;
40154;SDS011;25875;48.202;16.334;2023-03-07T11:03:21;13.95;;;10.40;;
40154;SDS011;25875;48.202;16.334;2023-03-07T11:05:51;16.90;;;10.10;;
40154;SDS011;25875;48.202;16.334;2023-03-07T11:11:03;16.38;;;10.93;;
40154;SDS011;25875;48.202;16.334;2023-03-07T11:13:32;14.18;;;10.50;;
40154;SDS011;25875;48.202;16.334;2023-03-07T11:16:09;15.45;;;11.48;;
40154;SDS011;25875;48.202;16.334;2023-03-07T11:18:42;15.93;;;11.70;;
40154;SDS011;25875;48.202;16.334;2023-03-07T11:21:25;15.20;;;10.77;;
40154;SDS011;25875;48.202;16.334;2023-03-07T11:23:58;16.65;;;11.98;;
40154;SDS011;25875;48.202;16.334;2023-03-07T11:26:28;17.23;;;11.90;;
40154;SDS011;25875;48.202;16.334;2023-03-07T11:29:05;19.08;;;11.77;;
40154;SDS011;25875;48.202;16.334;2023-03-07T11:31:34;16.98;;;12.13;;
40154;SDS011;25875;48.202;16.334;2023-03-07T11:34:14;14.70;;;10.07;;
40154;SDS011;25875;48.202;16.334;2023-03-07T11:36:51;15.05;;;11.10;;
40154;SDS011;25875;48.202;16.334;2023-03-07T11:39:23;14.80;;;11.32;;
40154;SDS011;25875;48.202;16.334;2023-03-07T11:41:58;13.68;;;10.38;;
40154;SDS011;25875;48.202;16.334;2023-03-07T11:44:32;15.77;;;11.27;;
40154;SDS011;25875;48.202;16.334;2023-03-07T11:47:10;15.40;;;11.68;;
40154;SDS011;25875;48.202;16.334;2023-03-07T11:49:50;16.25;;;11.38;;
40154;SDS011;25875;48.202;16.334;2023-03-07T11:55:23;13.55;;;10.00;;
40154;SDS011;25875;48.202;16.334;2023-03-07T11:57:57;14.82;;;10.35;;
40154;SDS011;25875;48.202;16.334;2023-03-07T12:00:39;16.67;;;10.90;;
40154;SDS011;25875;48.202;16.334;2023-03-07T12:03:23;12.48;;;10.23;;
40154;SDS011;25875;48.202;16.334;2023-03-07T12:06:06;14.57;;;10.48;;
40154;SDS011;25875;48.202;16.334;2023-03-07T12:11:54;14.13;;;10.50;;
40154;SDS011;25875;48.202;16.334;2023-03-07T12:14:31;12.80;;;9.38;;
40154;SDS011;25875;48.202;16.334;2023-03-07T12:17:11;14.52;;;10.15;;
40154;SDS011;25875;48.202;16.334;2023-03-07T12:19:52;12.55;;;9.77;;
40154;SDS011;25875;48.202;16.334;2023-03-07T12:22:26;14.60;;;10.38;;
40154;SDS011;25875;48.202;16.334;2023-03-07T12:24:59;11.27;;;9.18;;
40154;SDS011;25875;48.202;16.334;2023-03-07T12:27:33;11.88;;;9.02;;
40154;SDS011;25875;48.202;16.334;2023-03-07T12:30:05;10.00;;;8.68;;
40154;SDS011;25875;48.202;16.334;2023-03-07T12:32:41;10.20;;;7.95;;
40154;SDS011;25875;48.202;16.334;2023-03-07T12:35:13;13.60;;;8.75;;
40154;SDS011;25875;48.202;16.334;2023-03-07T12:37:49;11.18;;;8.48;;
40154;SDS011;25875;48.202;16.334;2023-03-07T12:40:19;11.45;;;9.38;;
40154;SDS011;25875;48.202;16.334;2023-03-07T12:42:48;11.27;;;8.90;;
40154;SDS011;25875;48.202;16.334;2023-03-07T12:45:21;11.68;;;9.07;;
40154;SDS011;25875;48.202;16.334;2023-03-07T12:47:53;9.52;;;7.85;;
40154;SDS011;25875;48.202;16.334;2023-03-07T12:50:26;11.00;;;8.90;;
40154;SDS011;25875;48.202;16.334;2023-03-07T12:52:57;10.50;;;7.65;;
40154;SDS011;25875;48.202;16.334;2023-03-07T12:55:29;9.55;;;7.50;;
40154;SDS011;25875;48.202;16.334;2023-03-07T12:58:02;10.57;;;7.97;;
40154;SDS011;25875;48.202;16.334;2023-03-07T13:00:32;9.77;;;8.10;;
40154;SDS011;25875;48.202;16.334;2023-03-07T13:03:08;10.40;;;7.25;;
40154;SDS011;25875;48.202;16.334;2023-03-07T13:05:40;11.40;;;7.90;;
40154;SDS011;25875;48.202;16.334;2023-03-07T13:08:09;9.55;;;7.55;;
40154;SDS011;25875;48.202;16.334;2023-03-07T13:10:45;10.70;;;8.05;;
40154;SDS011;25875;48.202;16.334;2023-03-07T13:16:30;11.02;;;7.72;;
40154;SDS011;25875;48.202;16.334;2023-03-07T13:28:34;8.60;;;7.57;;
40154;SDS011;25875;48.202;16.334;2023-03-07T13:43:31;13.48;;;9.52;;
40154;SDS011;25875;48.202;16.334;2023-03-07T13:46:27;10.90;;;8.25;;
40154;SDS011;25875;48.202;16.334;2023-03-07T13:55:04;10.00;;;7.10;;
40154;SDS011;25875;48.202;16.334;2023-03-07T13:57:44;13.55;;;7.75;;
40154;SDS011;25875;48.202;16.334;2023-03-07T14:00:18;9.55;;;7.63;;
40154;SDS011;25875;48.202;16.334;2023-03-07T14:02:50;8.88;;;7.20;;
40154;SDS011;25875;48.202;16.334;2023-03-07T14:05:19;8.77;;;6.57;;
40154;SDS011;25875;48.202;16.334;2023-03-07T14:07:46;8.35;;;6.32;;
40154;SDS011;25875;48.202;16.334;2023-03-07T14:10:17;11.18;;;6.63;;
40154;SDS011;25875;48.202;16.334;2023-03-07T14:12:53;8.57;;;7.03;;
40154;SDS011;25875;48.202;16.334;2023-03-07T14:15:44;9.88;;;6.47;;
40154;SDS011;25875;48.202;16.334;2023-03-07T14:18:25;9.05;;;6.88;;
40154;SDS011;25875;48.202;16.334;2023-03-07T14:21:03;9.88;;;6.85;;
40154;SDS011;25875;48.202;16.334;2023-03-07T14:26:51;6.75;;;5.45;;
40154;SDS011;25875;48.202;16.334;2023-03-07T14:29:22;6.25;;;4.93;;
40154;SDS011;25875;48.202;16.334;2023-03-07T14:31:51;6.85;;;5.75;;
40154;SDS011;25875;48.202;16.334;2023-03-07T14:34:26;6.75;;;5.78;;
40154;SDS011;25875;48.202;16.334;2023-03-07T14:36:55;8.32;;;5.32;;
40154;SDS011;25875;48.202;16.334;2023-03-07T14:39:24;7.13;;;5.75;;
40154;SDS011;25875;48.202;16.334;2023-03-07T14:42:00;6.93;;;5.43;;
40154;SDS011;25875;48.202;16.334;2023-03-07T14:47:40;6.80;;;5.15;;
40154;SDS011;25875;48.202;16.334;2023-03-07T14:50:17;7.40;;;4.97;;
40154;SDS011;25875;48.202;16.334;2023-03-07T14:52:45;6.10;;;4.93;;
40154;SDS011;25875;48.202;16.334;2023-03-07T14:55:14;7.07;;;5.25;;
40154;SDS011;25875;48.202;16.334;2023-03-07T14:57:44;12.90;;;6.43;;
40154;SDS011;25875;48.202;16.334;2023-03-07T15:00:25;9.50;;;6.60;;
40154;SDS011;25875;48.202;16.334;2023-03-07T15:02:54;8.40;;;6.00;;
40154;SDS011;25875;48.202;16.334;2023-03-07T15:05:24;8.75;;;6.18;;
40154;SDS011;25875;48.202;16.334;2023-03-07T15:07:52;7.18;;;5.47;;
40154;SDS011;25875;48.202;16.334;2023-03-07T15:10:21;9.18;;;5.38;;
40154;SDS011;25875;48.202;16.334;2023-03-07T15:12:52;9.02;;;6.47;;
40154;SDS011;25875;48.202;16.334;2023-03-07T15:18:10;8.95;;;7.18;;
40154;SDS011;25875;48.202;16.334;2023-03-07T15:20:45;10.73;;;7.03;;
40154;SDS011;25875;48.202;16.334;2023-03-07T15:23:16;9.73;;;6.45;;
40154;SDS011;25875;48.202;16.334;2023-03-07T15:25:46;8.70;;;6.40;;
40154;SDS011;25875;48.202;16.334;2023-03-07T15:28:18;9.13;;;6.35;;